Oriente, Brazil
Current Conditions -  °F | °C
As of 2:00 PM on Thursday 30 Oct 2014 (Local Time) from SBBU Reporting Station
Few Clouds Few Clouds  
Wind Chill: 95°   Ceiling: Unl
Heat Index: 96°   Visibility: 6mi
Dew Point: 63°   Wind: 8mph
Humidity: 34%   Direction: 320°NW
Pressure: 29.83"   Gusts: 20mph
Location:  22.15°S, 50.09°W
Report Text: SBBU 301600Z 32007G17KT 9999 FEW030 35/17 Q1010
Loading
Personal Weather Stations






























Interactive Weather Map
Tropical Storm Tracking
New forecast layout! Learn more

10-Day Weather Forecast

Advertisements
Track Severe Weather on mobile